sensor_id;sensor_type;location;lat;lon;timestamp;pressure;altitude;pressure_sealevel;temperature;humidity
74633;BME280;63139;52.018;8.552;2022-12-07T00:01:06;100414.53;;;5.50;85.98
74633;BME280;63139;52.018;8.552;2022-12-07T00:03:34;100409.16;;;5.51;85.67
74633;BME280;63139;52.018;8.552;2022-12-07T00:06:04;100409.16;;;5.51;86.02
74633;BME280;63139;52.018;8.552;2022-12-07T00:08:32;100406.41;;;5.53;86.01
74633;BME280;63139;52.018;8.552;2022-12-07T00:11:02;100411.38;;;5.56;85.87
74633;BME280;63139;52.018;8.552;2022-12-07T00:13:31;100411.53;;;5.54;86.12
74633;BME280;63139;52.018;8.552;2022-12-07T00:16:00;100408.91;;;5.54;85.83
74633;BME280;63139;52.018;8.552;2022-12-07T00:18:29;100400.06;;;5.55;86.27
74633;BME280;63139;52.018;8.552;2022-12-07T00:21:00;100407.78;;;5.57;86.37
74633;BME280;63139;52.018;8.552;2022-12-07T00:23:29;100398.09;;;5.57;86.44
74633;BME280;63139;52.018;8.552;2022-12-07T00:26:05;100400.59;;;5.59;86.38
74633;BME280;63139;52.018;8.552;2022-12-07T00:28:33;100395.47;;;5.57;86.00
74633;BME280;63139;52.018;8.552;2022-12-07T00:31:03;100396.59;;;5.55;86.14
74633;BME280;63139;52.018;8.552;2022-12-07T00:33:32;100392.56;;;5.51;86.14
74633;BME280;63139;52.018;8.552;2022-12-07T00:36:01;100386.91;;;5.45;85.98
74633;BME280;63139;52.018;8.552;2022-12-07T00:38:31;100398.38;;;5.44;86.38
74633;BME280;63139;52.018;8.552;2022-12-07T00:41:01;100397.81;;;5.41;86.50
74633;BME280;63139;52.018;8.552;2022-12-07T00:43:31;100396.84;;;5.42;86.30
74633;BME280;63139;52.018;8.552;2022-12-07T00:45:59;100394.22;;;5.42;86.37
74633;BME280;63139;52.018;8.552;2022-12-07T00:48:27;100392.88;;;5.47;86.14
74633;BME280;63139;52.018;8.552;2022-12-07T00:50:55;100384.16;;;5.47;86.10
74633;BME280;63139;52.018;8.552;2022-12-07T00:53:23;100379.56;;;5.49;86.23
74633;BME280;63139;52.018;8.552;2022-12-07T00:55:51;100383.03;;;5.50;85.94
74633;BME280;63139;52.018;8.552;2022-12-07T00:58:19;100384.69;;;5.51;85.91
74633;BME280;63139;52.018;8.552;2022-12-07T01:00:48;100376.94;;;5.49;85.61
74633;BME280;63139;52.018;8.552;2022-12-07T01:03:16;100381.94;;;5.52;85.80
74633;BME280;63139;52.018;8.552;2022-12-07T01:05:52;100378.22;;;5.55;85.92
74633;BME280;63139;52.018;8.552;2022-12-07T01:08:20;100375.72;;;5.53;85.79
74633;BME280;63139;52.018;8.552;2022-12-07T01:10:49;100381.50;;;5.57;85.89
74633;BME280;63139;52.018;8.552;2022-12-07T01:13:16;100378.88;;;5.57;85.58
74633;BME280;63139;52.018;8.552;2022-12-07T01:15:44;100385.81;;;5.58;85.34
74633;BME280;63139;52.018;8.552;2022-12-07T01:18:14;100385.53;;;5.61;85.50
74633;BME280;63139;52.018;8.552;2022-12-07T01:20:41;100385.66;;;5.59;85.03
74633;BME280;63139;52.018;8.552;2022-12-07T01:23:09;100389.13;;;5.60;85.06
74633;BME280;63139;52.018;8.552;2022-12-07T01:25:37;100396.16;;;5.59;85.42
74633;BME280;63139;52.018;8.552;2022-12-07T01:28:04;100386.25;;;5.63;85.27
74633;BME280;63139;52.018;8.552;2022-12-07T01:30:32;100383.75;;;5.61;85.32
74633;BME280;63139;52.018;8.552;2022-12-07T01:33:00;100391.06;;;5.58;85.01
74633;BME280;63139;52.018;8.552;2022-12-07T01:35:29;100389.69;;;5.54;84.97
74633;BME280;63139;52.018;8.552;2022-12-07T01:37:57;100388.97;;;5.52;85.13
74633;BME280;63139;52.018;8.552;2022-12-07T01:40:24;100388.72;;;5.45;85.09
74633;BME280;63139;52.018;8.552;2022-12-07T01:42:52;100388.44;;;5.38;85.20
74633;BME280;63139;52.018;8.552;2022-12-07T01:45:38;100392.56;;;5.31;84.88
74633;BME280;63139;52.018;8.552;2022-12-07T01:48:08;100391.00;;;5.19;85.03
74633;BME280;63139;52.018;8.552;2022-12-07T01:50:39;100383.81;;;5.12;85.74
74633;BME280;63139;52.018;8.552;2022-12-07T01:53:09;100379.94;;;5.06;86.09
74633;BME280;63139;52.018;8.552;2022-12-07T01:55:41;100389.06;;;5.02;86.08
74633;BME280;63139;52.018;8.552;2022-12-07T01:58:11;100387.53;;;4.99;86.36
74633;BME280;63139;52.018;8.552;2022-12-07T02:00:40;100375.50;;;4.97;86.34
74633;BME280;63139;52.018;8.552;2022-12-07T02:03:11;100380.34;;;4.92;86.33
74633;BME280;63139;52.018;8.552;2022-12-07T02:05:43;100387.09;;;4.85;86.52
74633;BME280;63139;52.018;8.552;2022-12-07T02:08:12;100382.50;;;4.77;86.52
74633;BME280;63139;52.018;8.552;2022-12-07T02:10:40;100377.09;;;4.69;87.08
74633;BME280;63139;52.018;8.552;2022-12-07T02:13:11;100369.06;;;4.61;86.64
74633;BME280;63139;52.018;8.552;2022-12-07T02:16:08;100370.97;;;4.49;87.10
74633;BME280;63139;52.018;8.552;2022-12-07T02:18:48;100363.31;;;4.37;87.83
74633;BME280;63139;52.018;8.552;2022-12-07T02:21:27;100372.22;;;4.24;87.95
74633;BME280;63139;52.018;8.552;2022-12-07T02:24:19;100364.56;;;4.12;88.38
74633;BME280;63139;52.018;8.552;2022-12-07T02:27:23;100368.09;;;4.01;88.78
74633;BME280;63139;52.018;8.552;2022-12-07T02:29:58;100372.44;;;3.91;89.42
74633;BME280;63139;52.018;8.552;2022-12-07T02:32:32;100379.84;;;3.86;89.50
74633;BME280;63139;52.018;8.552;2022-12-07T02:35:07;100370.41;;;3.74;89.76
74633;BME280;63139;52.018;8.552;2022-12-07T02:37:39;100380.88;;;3.74;90.34
74633;BME280;63139;52.018;8.552;2022-12-07T02:40:14;100369.56;;;3.73;90.24
74633;BME280;63139;52.018;8.552;2022-12-07T02:42:46;100374.09;;;3.71;90.43
74633;BME280;63139;52.018;8.552;2022-12-07T02:45:21;100361.97;;;3.70;90.38
74633;BME280;63139;52.018;8.552;2022-12-07T02:47:51;100370.78;;;3.69;90.55
74633;BME280;63139;52.018;8.552;2022-12-07T02:50:21;100358.78;;;3.67;90.56
74633;BME280;63139;52.018;8.552;2022-12-07T02:52:49;100358.19;;;3.63;90.79
74633;BME280;63139;52.018;8.552;2022-12-07T02:55:19;100357.50;;;3.61;90.56
74633;BME280;63139;52.018;8.552;2022-12-07T02:58:06;100359.41;;;3.59;90.97
74633;BME280;63139;52.018;8.552;2022-12-07T03:00:44;100353.59;;;3.56;90.75
74633;BME280;63139;52.018;8.552;2022-12-07T03:03:16;100353.03;;;3.52;90.96
74633;BME280;63139;52.018;8.552;2022-12-07T03:05:55;100355.88;;;3.49;91.34
74633;BME280;63139;52.018;8.552;2022-12-07T03:08:29;100350.19;;;3.44;90.95
74633;BME280;63139;52.018;8.552;2022-12-07T03:11:02;100354.03;;;3.40;91.32
74633;BME280;63139;52.018;8.552;2022-12-07T03:13:34;100349.03;;;3.37;91.29
74633;BME280;63139;52.018;8.552;2022-12-07T03:16:10;100356.19;;;3.35;91.28
74633;BME280;63139;52.018;8.552;2022-12-07T03:18:44;100357.38;;;3.31;91.42
74633;BME280;63139;52.018;8.552;2022-12-07T03:21:16;100358.47;;;3.28;91.28
74633;BME280;63139;52.018;8.552;2022-12-07T03:23:48;100349.22;;;3.24;91.08
74633;BME280;63139;52.018;8.552;2022-12-07T03:26:18;100346.84;;;3.21;91.72
74633;BME280;63139;52.018;8.552;2022-12-07T03:28:50;100349.56;;;3.20;91.59
74633;BME280;63139;52.018;8.552;2022-12-07T03:31:22;100353.41;;;3.16;91.63
74633;BME280;63139;52.018;8.552;2022-12-07T03:33:57;100344.84;;;3.13;91.96
74633;BME280;63139;52.018;8.552;2022-12-07T03:36:30;100343.16;;;3.12;92.07
74633;BME280;63139;52.018;8.552;2022-12-07T03:39:03;100344.13;;;3.11;91.74
74633;BME280;63139;52.018;8.552;2022-12-07T03:41:36;100339.03;;;3.10;92.08
74633;BME280;63139;52.018;8.552;2022-12-07T03:44:10;100334.88;;;3.07;91.87
74633;BME280;63139;52.018;8.552;2022-12-07T03:46:44;100338.44;;;3.06;92.47
74633;BME280;63139;52.018;8.552;2022-12-07T03:49:17;100337.03;;;3.02;92.51
74633;BME280;63139;52.018;8.552;2022-12-07T03:51:53;100344.88;;;3.02;92.11
74633;BME280;63139;52.018;8.552;2022-12-07T03:54:25;100348.44;;;3.01;92.50
74633;BME280;63139;52.018;8.552;2022-12-07T03:56:54;100359.88;;;3.00;92.19
74633;BME280;63139;52.018;8.552;2022-12-07T03:59:23;100349.53;;;2.99;92.56
74633;BME280;63139;52.018;8.552;2022-12-07T04:01:54;100345.94;;;3.00;92.66
74633;BME280;63139;52.018;8.552;2022-12-07T04:04:24;100346.28;;;3.06;92.90
74633;BME280;63139;52.018;8.552;2022-12-07T04:06:52;100340.44;;;3.14;92.66
74633;BME280;63139;52.018;8.552;2022-12-07T04:09:20;100339.81;;;3.22;92.52
74633;BME280;63139;52.018;8.552;2022-12-07T04:11:48;100335.03;;;3.27;92.52
74633;BME280;63139;52.018;8.552;2022-12-07T04:14:16;100338.13;;;3.32;92.12
74633;BME280;63139;52.018;8.552;2022-12-07T04:16:47;100345.72;;;3.35;92.07
74633;BME280;63139;52.018;8.552;2022-12-07T04:19:18;100347.97;;;3.39;91.91
74633;BME280;63139;52.018;8.552;2022-12-07T04:21:47;100342.22;;;3.45;91.40
74633;BME280;63139;52.018;8.552;2022-12-07T04:24:15;100342.66;;;3.50;91.07
74633;BME280;63139;52.018;8.552;2022-12-07T04:26:44;100351.22;;;3.53;90.96
74633;BME280;63139;52.018;8.552;2022-12-07T04:29:13;100346.00;;;3.53;90.87
74633;BME280;63139;52.018;8.552;2022-12-07T04:31:41;100344.22;;;3.53;90.67
74633;BME280;63139;52.018;8.552;2022-12-07T04:34:10;100346.13;;;3.51;90.45
74633;BME280;63139;52.018;8.552;2022-12-07T04:36:40;100346.13;;;3.51;90.01
74633;BME280;63139;52.018;8.552;2022-12-07T04:39:14;100351.34;;;3.51;89.98
74633;BME280;63139;52.018;8.552;2022-12-07T04:41:44;100349.81;;;3.48;89.96
74633;BME280;63139;52.018;8.552;2022-12-07T04:44:13;100342.34;;;3.44;89.67
74633;BME280;63139;52.018;8.552;2022-12-07T04:46:41;100334.72;;;3.41;89.66
74633;BME280;63139;52.018;8.552;2022-12-07T04:49:10;100343.81;;;3.37;90.04
74633;BME280;63139;52.018;8.552;2022-12-07T04:51:40;100338.13;;;3.32;90.03
74633;BME280;63139;52.018;8.552;2022-12-07T04:54:08;100347.16;;;3.28;89.91
74633;BME280;63139;52.018;8.552;2022-12-07T04:56:36;100347.28;;;3.26;90.44
74633;BME280;63139;52.018;8.552;2022-12-07T04:59:04;100337.91;;;3.24;90.68
74633;BME280;63139;52.018;8.552;2022-12-07T05:01:33;100342.19;;;3.25;90.70
74633;BME280;63139;52.018;8.552;2022-12-07T05:04:01;100338.25;;;3.30;90.61
74633;BME280;63139;52.018;8.552;2022-12-07T05:06:29;100338.81;;;3.34;90.67
74633;BME280;63139;52.018;8.552;2022-12-07T05:08:58;100343.69;;;3.38;90.47
74633;BME280;63139;52.018;8.552;2022-12-07T05:11:26;100341.63;;;3.42;90.68
74633;BME280;63139;52.018;8.552;2022-12-07T05:14:09;100343.78;;;3.48;90.30
74633;BME280;63139;52.018;8.552;2022-12-07T05:16:37;100345.16;;;3.52;90.30
74633;BME280;63139;52.018;8.552;2022-12-07T05:19:05;100352.50;;;3.58;89.86
74633;BME280;63139;52.018;8.552;2022-12-07T05:21:34;100351.16;;;3.64;89.78
74633;BME280;63139;52.018;8.552;2022-12-07T05:24:04;100341.03;;;3.70;89.83
74633;BME280;63139;52.018;8.552;2022-12-07T05:26:32;100351.94;;;3.75;89.41
74633;BME280;63139;52.018;8.552;2022-12-07T05:29:00;100353.34;;;3.79;88.98
74633;BME280;63139;52.018;8.552;2022-12-07T05:31:28;100353.81;;;3.84;88.95
74633;BME280;63139;52.018;8.552;2022-12-07T05:33:56;100339.47;;;3.88;88.58
74633;BME280;63139;52.018;8.552;2022-12-07T05:36:24;100349.00;;;3.89;88.25
74633;BME280;63139;52.018;8.552;2022-12-07T05:38:51;100348.47;;;3.96;88.37
74633;BME280;63139;52.018;8.552;2022-12-07T05:41:20;100339.56;;;3.98;87.91
74633;BME280;63139;52.018;8.552;2022-12-07T05:44:06;100342.03;;;4.00;87.48
74633;BME280;63139;52.018;8.552;2022-12-07T05:46:34;100337.88;;;3.97;86.88
74633;BME280;63139;52.018;8.552;2022-12-07T05:49:02;100333.06;;;3.93;87.05
74633;BME280;63139;52.018;8.552;2022-12-07T05:51:30;100334.97;;;3.90;87.17
74633;BME280;63139;52.018;8.552;2022-12-07T05:53:58;100336.16;;;3.86;87.33
74633;BME280;63139;52.018;8.552;2022-12-07T05:56:27;100345.13;;;3.84;87.22
74633;BME280;63139;52.018;8.552;2022-12-07T05:58:55;100342.03;;;3.79;87.13
74633;BME280;63139;52.018;8.552;2022-12-07T06:01:40;100343.25;;;3.75;87.30
74633;BME280;63139;52.018;8.552;2022-12-07T06:04:08;100339.09;;;3.72;87.35
74633;BME280;63139;52.018;8.552;2022-12-07T06:06:36;100339.38;;;3.69;87.43
74633;BME280;63139;52.018;8.552;2022-12-07T06:09:04;100337.00;;;3.66;87.24
74633;BME280;63139;52.018;8.552;2022-12-07T06:11:33;100331.44;;;3.60;87.34
74633;BME280;63139;52.018;8.552;2022-12-07T06:14:19;100335.59;;;3.62;87.34
74633;BME280;63139;52.018;8.552;2022-12-07T06:16:47;100329.53;;;3.62;87.24
74633;BME280;63139;52.018;8.552;2022-12-07T06:19:15;100329.91;;;3.57;87.17
74633;BME280;63139;52.018;8.552;2022-12-07T06:21:43;100331.38;;;3.50;87.45
74633;BME280;63139;52.018;8.552;2022-12-07T06:24:12;100331.16;;;3.42;87.28
74633;BME280;63139;52.018;8.552;2022-12-07T06:26:41;100329.44;;;3.31;87.77
74633;BME280;63139;52.018;8.552;2022-12-07T06:29:10;100334.34;;;3.25;87.99
74633;BME280;63139;52.018;8.552;2022-12-07T06:31:38;100339.25;;;3.18;88.62
74633;BME280;63139;52.018;8.552;2022-12-07T06:34:09;100337.13;;;3.12;88.76
74633;BME280;63139;52.018;8.552;2022-12-07T06:36:37;100333.53;;;3.13;88.77
74633;BME280;63139;52.018;8.552;2022-12-07T06:39:06;100335.22;;;3.14;89.17
74633;BME280;63139;52.018;8.552;2022-12-07T06:41:35;100340.44;;;3.14;89.33
74633;BME280;63139;52.018;8.552;2022-12-07T06:44:05;100334.03;;;3.18;89.24
74633;BME280;63139;52.018;8.552;2022-12-07T06:46:33;100335.66;;;3.19;89.15
74633;BME280;63139;52.018;8.552;2022-12-07T06:49:02;100337.47;;;3.19;89.13
74633;BME280;63139;52.018;8.552;2022-12-07T06:51:30;100344.50;;;3.18;88.98
74633;BME280;63139;52.018;8.552;2022-12-07T06:53:58;100340.44;;;3.14;88.73
74633;BME280;63139;52.018;8.552;2022-12-07T06:56:26;100332.97;;;3.09;88.93
74633;BME280;63139;52.018;8.552;2022-12-07T06:58:53;100341.06;;;3.06;88.80
74633;BME280;63139;52.018;8.552;2022-12-07T07:01:22;100345.72;;;3.03;88.99
74633;BME280;63139;52.018;8.552;2022-12-07T07:03:50;100347.41;;;2.93;89.25
74633;BME280;63139;52.018;8.552;2022-12-07T07:06:18;100351.22;;;2.89;88.94
74633;BME280;63139;52.018;8.552;2022-12-07T07:08:46;100347.19;;;2.85;89.13
74633;BME280;63139;52.018;8.552;2022-12-07T07:11:14;100350.03;;;2.82;89.24
74633;BME280;63139;52.018;8.552;2022-12-07T07:13:41;100364.19;;;2.79;89.32
74633;BME280;63139;52.018;8.552;2022-12-07T07:16:09;100354.91;;;2.75;89.38
74633;BME280;63139;52.018;8.552;2022-12-07T07:18:38;100353.63;;;2.69;89.51
74633;BME280;63139;52.018;8.552;2022-12-07T07:21:06;100357.19;;;2.68;89.35
74633;BME280;63139;52.018;8.552;2022-12-07T07:23:34;100356.34;;;2.68;89.59
74633;BME280;63139;52.018;8.552;2022-12-07T07:26:02;100354.81;;;2.65;89.23
74633;BME280;63139;52.018;8.552;2022-12-07T07:28:30;100364.56;;;2.63;89.88
74633;BME280;63139;52.018;8.552;2022-12-07T07:30:58;100364.78;;;2.60;89.71
74633;BME280;63139;52.018;8.552;2022-12-07T07:33:25;100367.53;;;2.59;89.96
74633;BME280;63139;52.018;8.552;2022-12-07T07:35:55;100368.50;;;2.58;89.66
74633;BME280;63139;52.018;8.552;2022-12-07T07:38:22;100368.59;;;2.56;89.87
74633;BME280;63139;52.018;8.552;2022-12-07T07:40:50;100371.44;;;2.53;89.94
74633;BME280;63139;52.018;8.552;2022-12-07T07:43:18;100367.16;;;2.52;90.16
74633;BME280;63139;52.018;8.552;2022-12-07T07:45:46;100375.16;;;2.51;90.60
74633;BME280;63139;52.018;8.552;2022-12-07T07:48:13;100363.59;;;2.53;90.38
74633;BME280;63139;52.018;8.552;2022-12-07T07:50:41;100372.28;;;2.54;90.40
74633;BME280;63139;52.018;8.552;2022-12-07T07:53:10;100370.50;;;2.54;90.41
74633;BME280;63139;52.018;8.552;2022-12-07T07:55:38;100375.59;;;2.56;90.30
74633;BME280;63139;52.018;8.552;2022-12-07T07:58:06;100378.84;;;2.59;90.62
74633;BME280;63139;52.018;8.552;2022-12-07T08:00:33;100371.56;;;2.63;90.28
74633;BME280;63139;52.018;8.552;2022-12-07T08:03:01;100379.28;;;2.64;90.03
74633;BME280;63139;52.018;8.552;2022-12-07T08:05:29;100375.84;;;2.64;90.18
74633;BME280;63139;52.018;8.552;2022-12-07T08:07:57;100383.44;;;2.67;90.19
74633;BME280;63139;52.018;8.552;2022-12-07T08:10:26;100381.66;;;2.67;90.17
74633;BME280;63139;52.018;8.552;2022-12-07T08:12:54;100380.59;;;2.70;90.28
74633;BME280;63139;52.018;8.552;2022-12-07T08:15:42;100380.59;;;2.70;90.10
74633;BME280;63139;52.018;8.552;2022-12-07T08:18:11;100387.09;;;2.76;89.90
74633;BME280;63139;52.018;8.552;2022-12-07T08:20:39;100382.22;;;2.82;90.09
74633;BME280;63139;52.018;8.552;2022-12-07T08:23:11;100391.00;;;2.92;90.33
74633;BME280;63139;52.018;8.552;2022-12-07T08:25:40;100388.41;;;3.03;89.79
74633;BME280;63139;52.018;8.552;2022-12-07T08:28:08;100387.84;;;3.21;89.38
74633;BME280;63139;52.018;8.552;2022-12-07T08:30:36;100386.25;;;3.40;88.94
74633;BME280;63139;52.018;8.552;2022-12-07T08:33:04;100381.75;;;3.63;88.53
74633;BME280;63139;52.018;8.552;2022-12-07T08:35:32;100388.16;;;3.70;88.24
74633;BME280;63139;52.018;8.552;2022-12-07T08:38:00;100393.72;;;3.77;87.58
74633;BME280;63139;52.018;8.552;2022-12-07T08:40:28;100386.63;;;3.88;87.52
74633;BME280;63139;52.018;8.552;2022-12-07T08:42:58;100387.97;;;4.04;86.46
74633;BME280;63139;52.018;8.552;2022-12-07T08:45:26;100388.22;;;4.21;85.89
74633;BME280;63139;52.018;8.552;2022-12-07T08:47:57;100384.28;;;4.37;84.67
74633;BME280;63139;52.018;8.552;2022-12-07T08:50:26;100376.94;;;4.61;84.85
74633;BME280;63139;52.018;8.552;2022-12-07T08:52:55;100381.78;;;4.65;84.74
74633;BME280;63139;52.018;8.552;2022-12-07T08:55:24;100371.81;;;4.59;84.00
74633;BME280;63139;52.018;8.552;2022-12-07T08:57:53;100373.16;;;4.54;84.23
74633;BME280;63139;52.018;8.552;2022-12-07T09:00:22;100373.00;;;4.46;84.17
74633;BME280;63139;52.018;8.552;2022-12-07T09:02:50;100373.66;;;4.38;84.38
74633;BME280;63139;52.018;8.552;2022-12-07T09:05:18;100383.97;;;4.30;84.25
74633;BME280;63139;52.018;8.552;2022-12-07T09:07:48;100379.13;;;4.25;84.90
74633;BME280;63139;52.018;8.552;2022-12-07T09:10:19;100382.97;;;4.21;84.88
74633;BME280;63139;52.018;8.552;2022-12-07T09:12:46;100382.91;;;4.12;84.72
74633;BME280;63139;52.018;8.552;2022-12-07T09:15:14;100380.16;;;4.13;84.38
74633;BME280;63139;52.018;8.552;2022-12-07T09:17:44;100389.53;;;4.16;84.70
74633;BME280;63139;52.018;8.552;2022-12-07T09:20:13;100387.09;;;4.24;84.62
74633;BME280;63139;52.018;8.552;2022-12-07T09:22:40;100382.03;;;4.32;84.07
74633;BME280;63139;52.018;8.552;2022-12-07T09:25:08;100393.84;;;4.47;83.91
74633;BME280;63139;52.018;8.552;2022-12-07T09:27:36;100388.94;;;4.63;84.00
74633;BME280;63139;52.018;8.552;2022-12-07T09:30:05;100390.78;;;4.73;83.83
74633;BME280;63139;52.018;8.552;2022-12-07T09:32:34;100388.63;;;4.87;83.37
74633;BME280;63139;52.018;8.552;2022-12-07T09:35:03;100391.66;;;4.92;82.79
74633;BME280;63139;52.018;8.552;2022-12-07T09:37:31;100390.72;;;5.03;82.99
74633;BME280;63139;52.018;8.552;2022-12-07T09:40:02;100388.69;;;5.16;81.94
74633;BME280;63139;52.018;8.552;2022-12-07T09:42:34;100390.22;;;5.19;81.94
74633;BME280;63139;52.018;8.552;2022-12-07T09:45:06;100388.13;;;5.22;81.81
74633;BME280;63139;52.018;8.552;2022-12-07T09:47:35;100393.78;;;5.27;81.24
74633;BME280;63139;52.018;8.552;2022-12-07T09:50:10;100394.66;;;5.37;80.89
74633;BME280;63139;52.018;8.552;2022-12-07T09:52:40;100395.75;;;5.44;81.03
74633;BME280;63139;52.018;8.552;2022-12-07T09:55:11;100393.56;;;5.40;80.87
74633;BME280;63139;52.018;8.552;2022-12-07T09:57:39;100390.66;;;5.53;81.25
74633;BME280;63139;52.018;8.552;2022-12-07T10:00:12;100380.00;;;5.54;80.42
74633;BME280;63139;52.018;8.552;2022-12-07T10:02:43;100385.66;;;5.59;80.69
74633;BME280;63139;52.018;8.552;2022-12-07T10:05:16;100382.63;;;5.73;80.94
74633;BME280;63139;52.018;8.552;2022-12-07T10:07:50;100380.38;;;5.78;80.84
74633;BME280;63139;52.018;8.552;2022-12-07T10:10:23;100385.69;;;5.88;80.22
74633;BME280;63139;52.018;8.552;2022-12-07T10:12:57;100379.16;;;5.82;80.21
74633;BME280;63139;52.018;8.552;2022-12-07T10:15:43;100377.50;;;5.81;79.60
74633;BME280;63139;52.018;8.552;2022-12-07T10:18:20;100380.81;;;5.83;79.34
74633;BME280;63139;52.018;8.552;2022-12-07T10:21:00;100373.91;;;5.73;79.49
74633;BME280;63139;52.018;8.552;2022-12-07T10:23:28;100368.78;;;5.71;79.53
74633;BME280;63139;52.018;8.552;2022-12-07T10:25:56;100367.69;;;5.74;80.05
74633;BME280;63139;52.018;8.552;2022-12-07T10:28:33;100367.69;;;5.74;79.40
74633;BME280;63139;52.018;8.552;2022-12-07T10:31:16;100374.19;;;5.79;79.55
74633;BME280;63139;52.018;8.552;2022-12-07T10:33:50;100371.41;;;5.81;79.75
74633;BME280;63139;52.018;8.552;2022-12-07T10:36:23;100366.19;;;5.91;79.41
74633;BME280;63139;52.018;8.552;2022-12-07T10:38:58;100362.16;;;5.96;79.50
74633;BME280;63139;52.018;8.552;2022-12-07T10:41:27;100354.84;;;6.00;79.36
74633;BME280;63139;52.018;8.552;2022-12-07T10:43:56;100351.91;;;6.03;79.31
74633;BME280;63139;52.018;8.552;2022-12-07T10:46:47;100343.44;;;6.09;78.69
74633;BME280;63139;52.018;8.552;2022-12-07T10:52:18;100345.22;;;6.18;77.96
74633;BME280;63139;52.018;8.552;2022-12-07T10:54:54;100343.56;;;6.17;77.56
74633;BME280;63139;52.018;8.552;2022-12-07T10:57:39;100351.69;;;6.23;78.20
74633;BME280;63139;52.018;8.552;2022-12-07T11:00:19;100338.66;;;6.32;77.71
74633;BME280;63139;52.018;8.552;2022-12-07T11:05:45;100336.03;;;6.32;76.83
74633;BME280;63139;52.018;8.552;2022-12-07T11:08:22;100331.47;;;6.34;77.33
74633;BME280;63139;52.018;8.552;2022-12-07T11:11:01;100334.06;;;6.43;78.40
74633;BME280;63139;52.018;8.552;2022-12-07T11:13:41;100332.84;;;6.38;77.40
74633;BME280;63139;52.018;8.552;2022-12-07T11:16:26;100329.09;;;6.40;77.53
74633;BME280;63139;52.018;8.552;2022-12-07T11:19:19;100321.91;;;6.42;77.11
74633;BME280;63139;52.018;8.552;2022-12-07T11:21:56;100329.78;;;6.42;77.80
74633;BME280;63139;52.018;8.552;2022-12-07T11:24:31;100323.00;;;6.40;76.91
74633;BME280;63139;52.018;8.552;2022-12-07T11:27:13;100320.75;;;6.45;77.08
74633;BME280;63139;52.018;8.552;2022-12-07T11:30:08;100326.31;;;6.42;76.65
74633;BME280;63139;52.018;8.552;2022-12-07T11:32:52;100325.22;;;6.44;76.16
74633;BME280;63139;52.018;8.552;2022-12-07T11:35:28;100312.22;;;6.43;77.35
74633;BME280;63139;52.018;8.552;2022-12-07T11:38:01;100306.72;;;6.36;76.19
74633;BME280;63139;52.018;8.552;2022-12-07T11:40:34;100307.69;;;6.35;76.90
74633;BME280;63139;52.018;8.552;2022-12-07T11:43:09;100299.09;;;6.33;76.20
74633;BME280;63139;52.018;8.552;2022-12-07T11:45:42;100303.25;;;6.36;76.52
74633;BME280;63139;52.018;8.552;2022-12-07T11:48:17;100302.66;;;6.42;76.86
74633;BME280;63139;52.018;8.552;2022-12-07T11:50:48;100294.09;;;6.40;76.48
74633;BME280;63139;52.018;8.552;2022-12-07T11:53:20;100290.25;;;6.34;76.78
74633;BME280;63139;52.018;8.552;2022-12-07T11:55:54;100295.53;;;6.24;76.66
74633;BME280;63139;52.018;8.552;2022-12-07T11:58:38;100283.66;;;6.20;77.11
74633;BME280;63139;52.018;8.552;2022-12-07T12:01:28;100292.78;;;6.26;77.36
74633;BME280;63139;52.018;8.552;2022-12-07T12:04:04;100282.56;;;6.50;76.27
74633;BME280;63139;52.018;8.552;2022-12-07T12:06:35;100282.69;;;6.49;76.38
74633;BME280;63139;52.018;8.552;2022-12-07T12:09:06;100279.53;;;6.45;76.44
74633;BME280;63139;52.018;8.552;2022-12-07T12:12:23;100273.38;;;6.37;75.54
74633;BME280;63139;52.018;8.552;2022-12-07T12:15:30;100273.38;;;6.37;75.97
74633;BME280;63139;52.018;8.552;2022-12-07T12:18:11;100271.00;;;6.34;76.24
74633;BME280;63139;52.018;8.552;2022-12-07T12:20:45;100283.31;;;6.33;76.12
74633;BME280;63139;52.018;8.552;2022-12-07T12:23:17;100276.31;;;6.24;76.24
74633;BME280;63139;52.018;8.552;2022-12-07T12:25:48;100266.25;;;6.19;75.99
74633;BME280;63139;52.018;8.552;2022-12-07T12:28:28;100261.44;;;6.15;76.46
74633;BME280;63139;52.018;8.552;2022-12-07T12:31:13;100266.81;;;6.13;75.80
74633;BME280;63139;52.018;8.552;2022-12-07T12:33:46;100268.47;;;6.14;76.53
74633;BME280;63139;52.018;8.552;2022-12-07T12:36:24;100266.72;;;6.05;75.83
74633;BME280;63139;52.018;8.552;2022-12-07T12:39:09;100277.38;;;6.04;76.06
74633;BME280;63139;52.018;8.552;2022-12-07T12:41:58;100266.84;;;6.04;76.11
74633;BME280;63139;52.018;8.552;2022-12-07T12:45:03;100259.91;;;6.12;75.96
74633;BME280;63139;52.018;8.552;2022-12-07T12:47:41;100258.22;;;6.21;76.25
74633;BME280;63139;52.018;8.552;2022-12-07T12:50:21;100256.56;;;6.20;75.47
74633;BME280;63139;52.018;8.552;2022-12-07T12:53:12;100264.72;;;6.17;74.89
74633;BME280;63139;52.018;8.552;2022-12-07T12:58:48;100256.59;;;6.38;75.21
74633;BME280;63139;52.018;8.552;2022-12-07T13:01:41;100253.78;;;6.49;74.70
74633;BME280;63139;52.018;8.552;2022-12-07T13:04:25;100252.50;;;6.53;74.57
74633;BME280;63139;52.018;8.552;2022-12-07T13:06:54;100251.13;;;6.49;74.91
74633;BME280;63139;52.018;8.552;2022-12-07T13:09:24;100253.91;;;6.47;74.28
74633;BME280;63139;52.018;8.552;2022-12-07T13:11:59;100247.81;;;6.47;74.70
74633;BME280;63139;52.018;8.552;2022-12-07T13:14:54;100255.56;;;6.48;74.69
74633;BME280;63139;52.018;8.552;2022-12-07T13:20:49;100248.31;;;6.33;74.75
74633;BME280;63139;52.018;8.552;2022-12-07T13:23:20;100254.53;;;6.32;74.81
74633;BME280;63139;52.018;8.552;2022-12-07T13:26:03;100246.38;;;6.35;74.56
74633;BME280;63139;52.018;8.552;2022-12-07T13:28:35;100239.81;;;6.21;73.93
74633;BME280;63139;52.018;8.552;2022-12-07T13:33:56;100226.47;;;6.05;74.58
74633;BME280;63139;52.018;8.552;2022-12-07T13:36:27;100232.00;;;6.02;74.49
74633;BME280;63139;52.018;8.552;2022-12-07T13:38:56;100227.47;;;5.94;73.48
74633;BME280;63139;52.018;8.552;2022-12-07T13:41:27;100219.75;;;5.83;74.16